Time;durP1;ratioP1;P1;durP2;ratioP2;P2;SDS_P1;SDS_P2;PMS_P1;PMS_P2;Temp;Humidity;BMP_temperature;BMP_pressure;BME280_temperature;BME280_humidity;BME280_pressure;Samples;Min_cycle;Max_cycle;Signal;HPM_P1;HPM_P2
2021/06/04 00:02:44;;;;;;;3.27;2.77;;;21.80;24.80;;;;;;10435825;28;20234;-79
2021/06/04 00:07:47;;;;;;;3.17;2.67;;;21.70;24.80;;;;;;10433530;28;20224;-78
2021/06/04 00:12:50;;;;;;;2.83;2.63;;;21.60;24.50;;;;;;10434719;28;20307;-78
2021/06/04 00:17:55;;;;;;;2.40;2.30;;;21.40;24.50;;;;;;10444968;28;20225;-78
2021/06/04 00:22:57;;;;;;;2.80;2.60;;;21.30;24.90;;;;;;10434749;28;20235;-78
2021/06/04 00:28:01;;;;;;;5.00;2.60;;;21.20;24.60;;;;;;10431708;28;20269;-78
2021/06/04 00:33:05;;;;;;;2.60;2.40;;;21.10;25.10;;;;;;10427746;28;20323;-78
2021/06/04 00:38:09;;;;;;;2.93;2.73;;;21.00;25.50;;;;;;10432970;28;20225;-78
2021/06/04 00:43:13;;;;;;;3.73;2.83;;;21.00;25.40;;;;;;10435614;28;20724;-77
2021/06/04 00:48:17;;;;;;;2.80;2.60;;;20.90;25.30;;;;;;10428415;28;20711;-78
2021/06/04 00:53:23;;;;;;;2.60;2.40;;;20.80;25.90;;;;;;10439340;28;20230;-78
2021/06/04 00:58:30;;;;;;;2.50;2.40;;;20.70;25.80;;;;;;10431913;28;20231;-77
2021/06/04 01:03:39;;;;;;;3.43;2.60;;;20.70;25.80;;;;;;10438156;28;20229;-78
2021/06/04 01:08:53;;;;;;;4.43;2.80;;;20.70;25.90;;;;;;10434523;28;20594;-78
2021/06/04 01:14:10;;;;;;;3.00;2.70;;;20.60;25.80;;;;;;10435340;28;20650;-77
2021/06/04 01:19:42;;;;;;;3.40;2.80;;;20.50;26.00;;;;;;10438868;28;20661;-78
2021/06/04 01:25:06;;;;;;;2.70;2.50;;;20.50;25.70;;;;;;10439608;28;20237;-78
2021/06/04 01:30:21;;;;;;;2.50;2.40;;;20.30;26.50;;;;;;10413832;28;20708;-78
2021/06/04 01:35:29;;;;;;;3.13;2.93;;;20.30;26.60;;;;;;10399587;28;20751;-77
2021/06/04 01:40:35;;;;;;;3.37;2.93;;;20.10;26.90;;;;;;10404608;28;20269;-78
2021/06/04 01:45:42;;;;;;;3.60;3.17;;;20.00;27.00;;;;;;10403297;28;20301;-77
2021/06/04 01:50:48;;;;;;;4.10;2.77;;;19.90;27.60;;;;;;10403015;28;20229;-78
2021/06/04 01:55:54;;;;;;;3.53;2.93;;;19.80;27.90;;;;;;10409169;28;20583;-78
2021/06/04 02:01:06;;;;;;;3.33;2.70;;;19.70;27.80;;;;;;10402184;28;20221;-78
2021/06/04 02:06:09;;;;;;;2.67;2.47;;;19.80;28.20;;;;;;10403399;28;20267;-77
2021/06/04 02:11:14;;;;;;;3.03;2.83;;;19.80;27.40;;;;;;10400653;28;20580;-77
2021/06/04 02:16:44;;;;;;;2.93;2.63;;;19.80;27.70;;;;;;10402261;28;20263;-77
2021/06/04 02:21:53;;;;;;;2.73;2.53;;;19.80;28.60;;;;;;10394575;28;20237;-78
2021/06/04 02:27:00;;;;;;;2.60;2.47;;;19.80;28.50;;;;;;10438698;28;20228;-78
2021/06/04 02:32:10;;;;;;;2.47;2.27;;;19.90;28.30;;;;;;10432401;28;20247;-77
2021/06/04 02:37:17;;;;;;;2.87;2.67;;;19.90;28.60;;;;;;10437777;28;20742;-77
2021/06/04 02:42:23;;;;;;;2.97;2.60;;;19.90;28.30;;;;;;10446456;28;20229;-77
2021/06/04 02:47:31;;;;;;;3.07;2.87;;;20.00;28.20;;;;;;10445750;28;20308;-77
2021/06/04 02:52:38;;;;;;;2.80;2.60;;;20.00;29.00;;;;;;10433276;28;20228;-78
2021/06/04 02:57:41;;;;;;;3.10;2.80;;;20.00;28.30;;;;;;10434007;28;20231;-77
2021/06/04 03:02:45;;;;;;;3.00;2.80;;;20.10;28.70;;;;;;10447365;28;20344;-77
2021/06/04 03:07:48;;;;;;;2.73;2.53;;;20.10;28.40;;;;;;10446849;28;20665;-77
2021/06/04 03:12:52;;;;;;;3.13;2.47;;;20.10;28.00;;;;;;10439697;28;20229;-74
2021/06/04 03:17:57;;;;;;;2.83;2.63;;;20.00;28.00;;;;;;10425143;28;21128;-78
2021/06/04 03:23:00;;;;;;;3.83;2.60;;;20.00;28.30;;;;;;10435479;28;20232;-79
2021/06/04 03:28:04;;;;;;;2.93;2.73;;;19.90;28.30;;;;;;10438626;28;20229;-78
2021/06/04 03:33:10;;;;;;;2.90;2.70;;;19.90;28.50;;;;;;10428065;28;20229;-78
2021/06/04 03:38:14;;;;;;;3.23;2.60;;;19.90;29.10;;;;;;10395092;28;20226;-78
2021/06/04 03:43:19;;;;;;;3.10;2.80;;;19.90;28.50;;;;;;10391928;28;20714;-78
2021/06/04 03:48:31;;;;;;;2.67;2.47;;;19.90;28.70;;;;;;10389297;28;20602;-79
2021/06/04 03:53:35;;;;;;;2.60;2.27;;;19.90;29.20;;;;;;10395413;28;20503;-78
2021/06/04 03:58:38;;;;;;;2.73;2.53;;;19.90;28.60;;;;;;10401573;28;20313;-78
2021/06/04 04:03:43;;;;;;;2.80;2.60;;;19.80;28.70;;;;;;10395006;28;20759;-78
2021/06/04 04:08:46;;;;;;;3.43;2.80;;;19.90;29.30;;;;;;10392088;28;20229;-78
2021/06/04 04:13:50;;;;;;;3.50;2.90;;;19.80;28.80;;;;;;10387103;28;20312;-78
2021/06/04 04:18:54;;;;;;;3.37;3.17;;;19.80;29.00;;;;;;10422876;28;20228;-78
2021/06/04 04:23:59;;;;;;;5.10;3.37;;;19.80;29.60;;;;;;10433559;28;20227;-78
2021/06/04 04:29:03;;;;;;;4.10;3.37;;;19.80;29.80;;;;;;10433292;28;20225;-77
2021/06/04 04:34:07;;;;;;;4.63;3.20;;;19.70;29.40;;;;;;10437504;28;20229;-77
2021/06/04 04:39:13;;;;;;;3.10;2.90;;;19.70;29.70;;;;;;10440744;28;20591;-78
2021/06/04 04:44:17;;;;;;;3.10;2.90;;;19.70;29.80;;;;;;10437835;28;20247;-78
2021/06/04 04:49:21;;;;;;;3.70;3.40;;;19.70;30.00;;;;;;10443980;28;20315;-78
2021/06/04 04:54:24;;;;;;;4.00;3.60;;;19.80;30.90;;;;;;10437957;28;20239;-78
2021/06/04 04:59:27;;;;;;;3.20;3.00;;;19.80;30.10;;;;;;10435364;28;20225;-78
2021/06/04 05:04:32;;;;;;;3.17;2.97;;;19.90;30.00;;;;;;10438091;28;20237;-78
2021/06/04 05:09:35;;;;;;;3.83;3.40;;;19.90;30.60;;;;;;10440972;28;20286;-78
2021/06/04 05:14:38;;;;;;;3.40;3.20;;;20.00;30.10;;;;;;10442348;28;20592;-78
2021/06/04 05:19:45;;;;;;;3.30;3.00;;;20.00;30.20;;;;;;10441266;28;20221;-78
2021/06/04 05:24:48;;;;;;;3.50;3.17;;;20.10;30.80;;;;;;10429708;28;20232;-78
2021/06/04 05:29:50;;;;;;;3.17;2.97;;;20.10;30.60;;;;;;10438502;28;20603;-78
2021/06/04 05:34:54;;;;;;;3.30;3.00;;;20.20;30.70;;;;;;10424893;28;20233;-79
2021/06/04 05:39:57;;;;;;;4.63;3.70;;;20.30;31.50;;;;;;10445369;28;20311;-79
2021/06/04 05:45:00;;;;;;;3.67;3.47;;;20.30;31.20;;;;;;10434542;28;20304;-78
2021/06/04 05:50:06;;;;;;;4.10;3.67;;;20.40;31.40;;;;;;10431245;28;20229;-77
2021/06/04 05:55:11;;;;;;;3.70;3.40;;;20.40;32.00;;;;;;10434939;28;20229;-78
2021/06/04 06:00:25;;;;;;;4.07;3.77;;;20.50;32.30;;;;;;10425251;28;20259;-74
2021/06/04 06:05:29;;;;;;;8.10;4.27;;;20.50;32.40;;;;;;10420792;28;20221;-74
2021/06/04 06:10:31;;;;;;;4.03;3.50;;;20.60;31.90;;;;;;10432111;28;20235;-74
2021/06/04 06:15:35;;;;;;;4.97;3.63;;;20.70;31.20;;;;;;10432560;28;20248;-74
2021/06/04 06:20:43;;;;;;;4.27;3.67;;;20.80;31.40;;;;;;10429806;28;20223;-74
2021/06/04 06:25:48;;;;;;;5.33;3.70;;;20.90;31.70;;;;;;10426972;28;20709;-74
2021/06/04 06:30:51;;;;;;;3.50;3.20;;;21.00;31.70;;;;;;10425604;28;20224;-74
2021/06/04 06:35:58;;;;;;;4.37;3.37;;;21.10;31.10;;;;;;10422385;28;20221;-74
2021/06/04 06:41:04;;;;;;;3.20;2.90;;;21.20;31.30;;;;;;10433480;28;20233;-74
2021/06/04 06:46:08;;;;;;;4.97;3.50;;;21.40;30.80;;;;;;10429745;28;20227;-74
2021/06/04 06:51:13;;;;;;;3.47;3.17;;;21.50;31.20;;;;;;10429957;28;20259;-75
2021/06/04 06:56:19;;;;;;;3.80;3.50;;;21.60;31.40;;;;;;10425419;28;20219;-74
2021/06/04 07:01:22;;;;;;;3.53;3.23;;;21.80;31.20;;;;;;10427168;28;20236;-75
2021/06/04 07:06:29;;;;;;;4.90;3.33;;;22.00;31.20;;;;;;10431476;28;20685;-75
2021/06/04 07:11:36;;;;;;;5.43;3.93;;;22.20;30.60;;;;;;10438482;28;20225;-79
2021/06/04 07:16:39;;;;;;;4.03;3.63;;;22.40;30.80;;;;;;10447849;28;20228;-79
2021/06/04 07:21:45;;;;;;;4.17;3.77;;;22.50;30.40;;;;;;10438330;28;20320;-79
2021/06/04 07:26:50;;;;;;;4.83;4.30;;;22.60;30.90;;;;;;10437464;28;20320;-79
2021/06/04 07:31:53;;;;;;;4.27;3.97;;;22.70;30.60;;;;;;10441146;28;20312;-79
2021/06/04 07:37:00;;;;;;;5.17;4.60;;;22.80;30.30;;;;;;10446663;28;20300;-79
2021/06/04 07:42:05;;;;;;;4.83;4.33;;;22.90;30.80;;;;;;10441562;28;20224;-78
2021/06/04 07:47:08;;;;;;;4.57;4.13;;;23.10;30.60;;;;;;10436206;28;20316;-79
2021/06/04 07:52:12;;;;;;;4.93;4.37;;;23.40;30.50;;;;;;10445923;28;20229;-79
2021/06/04 07:57:15;;;;;;;4.83;4.43;;;23.50;30.30;;;;;;10447288;28;20233;-80
2021/06/04 08:02:18;;;;;;;29.10;6.17;;;23.70;30.30;;;;;;10433525;28;20237;-76
2021/06/04 08:07:29;;;;;;;4.90;4.50;;;23.90;30.20;;;;;;10424082;28;20308;-77
2021/06/04 08:12:32;;;;;;;4.20;3.87;;;24.10;29.90;;;;;;10419012;28;20645;-74
2021/06/04 08:17:35;;;;;;;4.97;3.97;;;24.40;30.00;;;;;;10427935;28;20231;-74
2021/06/04 08:22:42;;;;;;;4.17;3.83;;;24.60;29.80;;;;;;10427107;28;20239;-71
2021/06/04 08:27:45;;;;;;;3.90;3.70;;;24.80;29.70;;;;;;10429117;28;20249;-76
2021/06/04 08:32:48;;;;;;;3.63;3.30;;;25.00;29.90;;;;;;10421631;28;20248;-76
2021/06/04 08:37:52;;;;;;;3.80;3.50;;;25.20;29.30;;;;;;10425692;28;20299;-76
2021/06/04 08:43:11;;;;;;;4.10;3.80;;;25.40;29.20;;;;;;10429918;28;20229;-76
2021/06/04 08:48:32;;;;;;;3.97;3.70;;;25.60;29.00;;;;;;10422027;28;20239;-77
2021/06/04 08:53:45;;;;;;;3.73;3.50;;;25.80;29.10;;;;;;10427502;28;20233;-76
2021/06/04 08:58:55;;;;;;;4.30;4.00;;;25.90;29.10;;;;;;10425078;28;20232;-75
2021/06/04 09:04:01;;;;;;;4.10;3.63;;;26.10;28.90;;;;;;10424087;28;20576;-74
2021/06/04 09:09:14;;;;;;;3.90;3.60;;;26.20;28.70;;;;;;10420331;28;20235;-69
2021/06/04 09:14:17;;;;;;;4.37;3.97;;;26.40;28.60;;;;;;10426024;28;20329;-75
2021/06/04 09:19:25;;;;;;;4.13;3.77;;;26.50;28.50;;;;;;10422923;28;20228;-74
2021/06/04 09:24:34;;;;;;;4.10;3.80;;;26.60;28.30;;;;;;10426737;28;20236;-77
2021/06/04 09:29:37;;;;;;;4.27;3.90;;;26.70;28.70;;;;;;10428977;28;20235;-76
2021/06/04 09:34:40;;;;;;;4.40;3.97;;;26.90;28.40;;;;;;10423057;28;20225;-77
2021/06/04 09:39:49;;;;;;;4.23;3.87;;;27.00;28.40;;;;;;10425109;28;20260;-75
2021/06/04 09:44:59;;;;;;;4.70;4.40;;;27.10;27.80;;;;;;10426447;28;20749;-78
2021/06/04 09:50:16;;;;;;;4.30;4.00;;;27.20;27.70;;;;;;10429704;28;20225;-77
2021/06/04 09:55:28;;;;;;;5.00;4.53;;;27.30;27.60;;;;;;10429537;28;20225;-75
2021/06/04 10:00:34;;;;;;;4.20;3.90;;;27.40;27.70;;;;;;10429644;28;20863;-75
2021/06/04 10:05:38;;;;;;;4.30;4.00;;;27.50;27.50;;;;;;10436025;28;20715;-78
2021/06/04 10:10:42;;;;;;;4.30;4.03;;;27.60;27.50;;;;;;10429596;28;20225;-78
2021/06/04 10:15:48;;;;;;;5.73;4.37;;;27.80;27.30;;;;;;10435262;28;20227;-78
2021/06/04 10:20:52;;;;;;;6.23;4.40;;;27.80;27.00;;;;;;10430990;28;20247;-79
2021/06/04 10:25:59;;;;;;;4.87;4.13;;;27.90;27.10;;;;;;10438033;28;20590;-79
2021/06/04 10:31:09;;;;;;;4.77;3.93;;;28.00;26.70;;;;;;10441055;28;20312;-77
2021/06/04 10:36:16;;;;;;;4.47;4.13;;;28.10;26.50;;;;;;10430172;28;20233;-77
2021/06/04 10:41:27;;;;;;;3.97;3.67;;;28.20;26.50;;;;;;10429617;28;20228;-77
2021/06/04 10:46:36;;;;;;;5.03;4.40;;;28.30;26.20;;;;;;10428340;28;20224;-77
2021/06/04 10:51:54;;;;;;;4.67;4.13;;;28.50;26.40;;;;;;10428888;28;20283;-77
2021/06/04 10:57:02;;;;;;;4.63;4.10;;;28.70;26.00;;;;;;10420798;28;20220;-77
2021/06/04 11:02:15;;;;;;;3.80;3.60;;;28.80;26.00;;;;;;10427551;28;20331;-77
2021/06/04 11:07:28;;;;;;;3.60;3.30;;;28.80;25.80;;;;;;10431889;28;20235;-76
2021/06/04 11:12:54;;;;;;;4.57;4.13;;;29.00;25.50;;;;;;10430238;28;20221;-77
2021/06/04 11:18:02;;;;;;;4.30;4.00;;;29.20;25.60;;;;;;10428673;28;20782;-77
2021/06/04 11:23:10;;;;;;;4.60;4.20;;;29.40;25.30;;;;;;10424831;28;20266;-76
2021/06/04 11:28:27;;;;;;;3.60;3.40;;;29.50;25.40;;;;;;10433444;28;20227;-76
2021/06/04 11:33:31;;;;;;;3.27;2.97;;;29.60;24.10;;;;;;10430978;28;20231;-76
2021/06/04 11:38:39;;;;;;;3.97;3.30;;;29.80;24.50;;;;;;10440683;28;20296;-76
2021/06/04 11:43:46;;;;;;;3.20;2.90;;;30.00;24.60;;;;;;10427047;28;20230;-75
2021/06/04 11:49:09;;;;;;;4.10;3.27;;;30.30;23.80;;;;;;10425580;28;20316;-76
2021/06/04 11:54:41;;;;;;;3.13;2.93;;;30.50;24.40;;;;;;10428145;28;20229;-76
2021/06/04 12:00:01;;;;;;;3.20;3.00;;;30.70;22.50;;;;;;10430409;28;20282;-76
2021/06/04 12:05:21;;;;;;;5.07;3.60;;;30.80;22.90;;;;;;10426930;28;20229;-76
2021/06/04 12:11:05;;;;;;;4.37;3.70;;;30.90;23.00;;;;;;10416051;28;20233;-76
2021/06/04 12:16:31;;;;;;;3.83;3.53;;;31.00;22.90;;;;;;10431732;28;20680;-76
2021/06/04 12:21:58;;;;;;;3.77;3.50;;;31.00;22.90;;;;;;10422872;28;20233;-75
2021/06/04 12:27:21;;;;;;;3.53;3.33;;;31.00;22.60;;;;;;10427421;28;20235;-76
2021/06/04 12:33:01;;;;;;;3.43;3.23;;;31.00;22.70;;;;;;10431255;28;20232;-75
2021/06/04 12:38:32;;;;;;;3.70;3.40;;;31.10;22.60;;;;;;10417625;28;20232;-76
2021/06/04 12:43:36;;;;;;;3.37;3.07;;;31.20;22.30;;;;;;10426985;28;20229;-76
2021/06/04 12:48:43;;;;;;;3.57;3.27;;;31.20;21.90;;;;;;10425965;28;21924;-76
2021/06/04 12:53:48;;;;;;;3.40;3.20;;;31.20;21.70;;;;;;10431196;28;20225;-76
2021/06/04 12:58:54;;;;;;;3.17;2.90;;;31.20;21.70;;;;;;10427602;28;20233;-76
2021/06/04 13:04:01;;;;;;;4.33;3.03;;;31.30;21.80;;;;;;10428388;28;20220;-76
2021/06/04 13:09:07;;;;;;;3.00;2.70;;;31.30;20.80;;;;;;10428604;28;20216;-76
2021/06/04 13:14:33;;;;;;;3.40;3.17;;;31.30;20.80;;;;;;10430018;28;20312;-76
2021/06/04 13:19:37;;;;;;;3.20;2.90;;;31.30;20.50;;;;;;10425291;28;20656;-76
2021/06/04 13:24:40;;;;;;;4.20;3.00;;;31.30;20.70;;;;;;10418479;28;20580;-76
2021/06/04 13:29:45;;;;;;;3.10;2.90;;;31.40;21.20;;;;;;10422695;28;20232;-76
2021/06/04 13:34:54;;;;;;;3.50;3.20;;;31.40;20.70;;;;;;10425432;28;20693;-75
2021/06/04 13:39:57;;;;;;;4.10;3.00;;;31.40;19.50;;;;;;10423032;28;20218;-76
2021/06/04 13:45:01;;;;;;;3.00;2.80;;;31.50;20.70;;;;;;10429519;28;20736;-81
2021/06/04 13:50:23;;;;;;;3.00;2.80;;;31.40;20.40;;;;;;10432956;28;20225;-80
2021/06/04 13:55:26;;;;;;;3.10;2.90;;;31.50;19.70;;;;;;10436440;28;20311;-81
2021/06/04 14:00:31;;;;;;;3.30;3.10;;;31.50;20.30;;;;;;10438204;28;20274;-80
2021/06/04 14:05:36;;;;;;;3.43;3.20;;;31.50;20.40;;;;;;10424920;28;20232;-77
2021/06/04 14:10:50;;;;;;;3.13;2.93;;;31.50;19.90;;;;;;10428656;28;20221;-77
2021/06/04 14:16:04;;;;;;;3.07;2.87;;;31.50;19.70;;;;;;10420505;28;20244;-77
2021/06/04 14:21:40;;;;;;;3.30;3.10;;;31.50;19.80;;;;;;10425984;28;20249;-77
2021/06/04 14:26:48;;;;;;;3.47;3.17;;;31.50;20.20;;;;;;10427612;28;20594;-77
2021/06/04 14:31:54;;;;;;;5.10;2.80;;;31.50;19.90;;;;;;10428327;28;20224;-74
2021/06/04 14:37:00;;;;;;;2.77;2.50;;;31.30;20.10;;;;;;10441829;28;20705;-77
2021/06/04 14:42:06;;;;;;;5.10;3.10;;;30.90;20.50;;;;;;10436268;28;20240;-79
2021/06/04 14:47:15;;;;;;;3.40;3.10;;;30.30;21.00;;;;;;10428643;28;20711;-80
2021/06/04 14:52:19;;;;;;;3.40;3.10;;;29.60;21.60;;;;;;10436101;28;20644;-80
2021/06/04 14:57:23;;;;;;;4.10;3.37;;;29.00;22.20;;;;;;10444656;28;20233;-78
2021/06/04 15:02:26;;;;;;;3.60;3.30;;;28.40;22.80;;;;;;10444195;28;20737;-78
2021/06/04 15:07:30;;;;;;;4.77;3.80;;;28.10;23.40;;;;;;10445846;28;20236;-79
2021/06/04 15:12:33;;;;;;;3.80;3.50;;;27.70;24.50;;;;;;10444259;28;20708;-81
2021/06/04 15:17:37;;;;;;;4.53;3.43;;;27.30;24.40;;;;;;10445203;28;20591;-78
2021/06/04 15:22:41;;;;;;;3.27;2.97;;;26.90;24.80;;;;;;10447892;28;20229;-79
2021/06/04 15:27:45;;;;;;;3.03;2.83;;;26.60;25.20;;;;;;10438098;28;20221;-76
2021/06/04 15:32:48;;;;;;;3.07;2.87;;;26.40;25.00;;;;;;10437547;28;20739;-76
2021/06/04 15:37:52;;;;;;;3.40;3.10;;;26.20;25.10;;;;;;10430475;28;20236;-78
2021/06/04 15:42:56;;;;;;;2.80;2.60;;;26.10;25.40;;;;;;10436078;28;20279;-77
2021/06/04 15:48:01;;;;;;;3.33;3.03;;;26.00;25.50;;;;;;10440176;28;20752;-77
2021/06/04 15:53:08;;;;;;;3.50;3.20;;;26.00;25.80;;;;;;10439936;28;20225;-77
2021/06/04 15:58:12;;;;;;;3.57;3.27;;;26.10;26.40;;;;;;10431428;28;20300;-77
2021/06/04 16:03:14;;;;;;;3.57;3.30;;;26.00;26.10;;;;;;10437230;28;20696;-78
2021/06/04 16:08:18;;;;;;;3.07;2.87;;;25.90;26.10;;;;;;10430582;28;20228;-77
2021/06/04 16:13:21;;;;;;;3.50;3.20;;;25.90;26.50;;;;;;10426214;28;21334;-78
2021/06/04 16:18:24;;;;;;;3.40;3.10;;;25.90;26.60;;;;;;10426990;28;20588;-77
2021/06/04 16:23:29;;;;;;;3.07;2.87;;;26.00;26.70;;;;;;10434591;28;20233;-79
2021/06/04 16:28:32;;;;;;;3.20;3.00;;;26.00;27.00;;;;;;10432852;28;20229;-78
2021/06/04 16:33:37;;;;;;;3.23;3.00;;;26.10;26.70;;;;;;10429400;28;20229;-77
2021/06/04 16:38:42;;;;;;;3.63;3.37;;;26.20;26.80;;;;;;10436718;28;20300;-79
2021/06/04 16:43:45;;;;;;;3.63;3.40;;;26.20;26.90;;;;;;10432862;28;20306;-77
2021/06/04 16:48:48;;;;;;;4.00;3.60;;;26.20;26.70;;;;;;10431617;28;20241;-79
2021/06/04 16:53:52;;;;;;;3.33;3.13;;;26.20;26.90;;;;;;10441218;28;20225;-79
2021/06/04 16:58:55;;;;;;;3.30;3.10;;;26.20;27.30;;;;;;10403845;28;20229;-77
2021/06/04 17:03:58;;;;;;;4.17;3.27;;;26.10;27.10;;;;;;10378154;28;20224;-78
2021/06/04 17:09:02;;;;;;;3.83;3.43;;;26.10;27.20;;;;;;10384836;28;20713;-77
2021/06/04 17:14:05;;;;;;;3.77;3.47;;;26.10;27.60;;;;;;10415299;28;20217;-79
2021/06/04 17:19:12;;;;;;;3.23;2.93;;;26.20;27.30;;;;;;10439386;28;20239;-79
2021/06/04 17:24:18;;;;;;;3.40;3.20;;;26.30;27.20;;;;;;10430287;28;20312;-81
2021/06/04 17:29:21;;;;;;;3.40;3.10;;;26.40;27.30;;;;;;10422828;28;20234;-81
2021/06/04 17:34:25;;;;;;;2.90;2.70;;;26.40;27.20;;;;;;10386166;28;20230;-79
2021/06/04 17:39:30;;;;;;;2.93;2.77;;;26.50;27.20;;;;;;10397065;28;21334;-81
2021/06/04 17:44:33;;;;;;;3.17;2.87;;;26.60;27.20;;;;;;10398702;28;20718;-81
2021/06/04 17:49:36;;;;;;;3.30;3.10;;;26.70;27.20;;;;;;10393681;28;21016;-80
2021/06/04 17:54:40;;;;;;;4.37;3.57;;;26.80;26.90;;;;;;10395273;28;20624;-81
2021/06/04 17:59:43;;;;;;;3.83;3.53;;;27.00;27.80;;;;;;10391716;28;20301;-81
2021/06/04 18:04:46;;;;;;;3.60;3.20;;;27.00;27.50;;;;;;10398695;28;20236;-81
2021/06/04 18:09:52;;;;;;;3.30;2.97;;;27.10;27.40;;;;;;10397751;28;20232;-81
2021/06/04 18:14:54;;;;;;;3.70;3.33;;;27.00;28.20;;;;;;10396257;28;20224;-81
2021/06/04 18:19:57;;;;;;;3.80;3.40;;;27.00;27.40;;;;;;10407356;28;20301;-81
2021/06/04 18:25:01;;;;;;;3.73;3.43;;;27.00;27.70;;;;;;10392790;28;20236;-81
2021/06/04 18:30:06;;;;;;;3.60;3.30;;;27.00;28.00;;;;;;10395271;28;20217;-80
2021/06/04 18:35:12;;;;;;;5.37;3.30;;;26.90;27.80;;;;;;10398797;28;20241;-81
2021/06/04 18:40:18;;;;;;;3.93;3.23;;;26.80;27.70;;;;;;10405664;28;20226;-80
2021/06/04 18:45:22;;;;;;;4.43;3.53;;;26.70;27.90;;;;;;10398543;28;20317;-80
2021/06/04 18:50:30;;;;;;;3.83;3.30;;;26.60;28.20;;;;;;10402550;28;20232;-79
2021/06/04 18:55:35;;;;;;;3.90;3.57;;;26.50;28.80;;;;;;10395713;28;20275;-79
2021/06/04 19:00:40;;;;;;;4.27;3.07;;;26.40;29.40;;;;;;10389431;28;20237;-77
2021/06/04 19:05:44;;;;;;;3.77;3.53;;;26.40;29.20;;;;;;10387891;28;20222;-79
2021/06/04 19:10:48;;;;;;;3.63;3.43;;;26.40;29.40;;;;;;10383171;28;20229;-80
2021/06/04 19:15:52;;;;;;;4.10;3.70;;;26.40;29.40;;;;;;10379531;28;20283;-80
2021/06/04 19:20:55;;;;;;;4.07;3.63;;;26.40;29.40;;;;;;10388215;28;20730;-80
2021/06/04 19:26:00;;;;;;;4.37;3.53;;;26.40;29.40;;;;;;10388304;28;20308;-80
2021/06/04 19:31:03;;;;;;;3.80;3.40;;;26.30;29.60;;;;;;10401322;28;20229;-81
2021/06/04 19:36:07;;;;;;;4.17;3.80;;;26.20;29.30;;;;;;10396622;28;20300;-81
2021/06/04 19:41:14;;;;;;;3.50;3.30;;;26.20;29.50;;;;;;10390639;28;20512;-80
2021/06/04 19:46:17;;;;;;;4.10;3.80;;;26.00;30.00;;;;;;10421269;28;20715;-79
2021/06/04 19:51:23;;;;;;;3.60;3.30;;;26.00;29.90;;;;;;10435698;28;20221;-79
2021/06/04 19:56:27;;;;;;;3.80;3.50;;;25.80;30.20;;;;;;10431777;28;20744;-79
2021/06/04 20:01:32;;;;;;;3.67;3.37;;;25.70;30.70;;;;;;10422872;28;20258;-77
2021/06/04 20:06:36;;;;;;;4.50;4.10;;;25.60;30.90;;;;;;10421924;28;20225;-77
2021/06/04 20:11:41;;;;;;;4.40;3.70;;;25.60;30.80;;;;;;10423894;28;20851;-76
2021/06/04 20:16:44;;;;;;;4.43;4.10;;;25.50;31.10;;;;;;10422180;28;20229;-77
2021/06/04 20:21:47;;;;;;;4.33;4.00;;;25.50;30.90;;;;;;10419577;28;20235;-76
2021/06/04 20:26:51;;;;;;;3.97;3.70;;;25.40;30.70;;;;;;10419067;28;20305;-76
2021/06/04 20:31:54;;;;;;;4.30;3.90;;;25.40;30.90;;;;;;10428565;28;20221;-77
2021/06/04 20:36:57;;;;;;;3.60;3.30;;;25.30;30.70;;;;;;10429221;28;20225;-77
2021/06/04 20:42:01;;;;;;;3.50;3.20;;;25.30;30.80;;;;;;10426985;28;20233;-77
2021/06/04 20:47:05;;;;;;;3.20;2.93;;;25.30;30.90;;;;;;10431274;28;20315;-77
2021/06/04 20:52:08;;;;;;;3.60;3.30;;;25.30;30.60;;;;;;10424985;28;20224;-77
2021/06/04 20:57:12;;;;;;;3.33;3.03;;;25.20;30.80;;;;;;10426434;28;20229;-77
2021/06/04 21:02:15;;;;;;;3.23;3.03;;;25.20;31.30;;;;;;10440251;28;20728;-80
2021/06/04 21:07:18;;;;;;;3.33;3.03;;;25.20;31.00;;;;;;10436102;28;20312;-79
2021/06/04 21:12:22;;;;;;;4.23;3.30;;;25.20;31.10;;;;;;10436267;28;20417;-79
2021/06/04 21:17:25;;;;;;;3.63;3.33;;;25.10;31.40;;;;;;10433188;28;20218;-78
2021/06/04 21:22:28;;;;;;;2.93;2.73;;;25.10;31.20;;;;;;10433271;28;20233;-79
2021/06/04 21:27:33;;;;;;;4.27;2.93;;;25.00;31.20;;;;;;10442731;28;20221;-78
2021/06/04 21:32:36;;;;;;;5.60;3.30;;;24.90;31.70;;;;;;10415200;28;20230;-79
2021/06/04 21:37:39;;;;;;;3.77;3.47;;;24.90;31.30;;;;;;10397203;28;20311;-78
2021/06/04 21:42:44;;;;;;;3.90;3.60;;;24.90;31.40;;;;;;10440339;28;20231;-79
2021/06/04 21:47:48;;;;;;;6.40;5.83;;;24.70;32.00;;;;;;10442276;28;20235;-79
2021/06/04 21:52:51;;;;;;;7.47;6.73;;;24.50;31.70;;;;;;10447723;28;20220;-78
2021/06/04 21:57:56;;;;;;;6.53;5.70;;;24.30;31.80;;;;;;10431202;28;20554;-79
2021/06/04 22:02:59;;;;;;;5.10;4.70;;;24.10;33.20;;;;;;10441840;28;20316;-79
2021/06/04 22:08:04;;;;;;;4.43;4.07;;;24.10;32.30;;;;;;10436331;28;20669;-80
2021/06/04 22:13:08;;;;;;;5.17;4.60;;;24.10;32.40;;;;;;10431418;28;20229;-79
2021/06/04 22:18:12;;;;;;;3.90;3.60;;;24.10;32.80;;;;;;10428453;28;20232;-79
2021/06/04 22:23:18;;;;;;;3.93;3.43;;;24.10;32.60;;;;;;10436299;28;20234;-79
2021/06/04 22:28:26;;;;;;;3.40;3.10;;;24.10;32.70;;;;;;10429362;28;20236;-78
2021/06/04 22:33:32;;;;;;;3.00;2.80;;;24.10;33.00;;;;;;10424497;28;20233;-78
2021/06/04 22:38:35;;;;;;;3.33;3.10;;;24.00;32.80;;;;;;10425610;28;20228;-78
2021/06/04 22:43:40;;;;;;;3.10;2.90;;;23.90;32.30;;;;;;10432435;28;20324;-78
2021/06/04 22:48:43;;;;;;;2.90;2.70;;;23.90;32.90;;;;;;10431533;28;20339;-78
2021/06/04 22:53:47;;;;;;;3.23;3.03;;;23.80;32.20;;;;;;10425720;28;20576;-79
2021/06/04 22:58:52;;;;;;;3.23;3.03;;;23.80;33.20;;;;;;10424971;28;20309;-79
2021/06/04 23:03:57;;;;;;;3.33;2.97;;;23.70;32.90;;;;;;10431494;28;20229;-80
2021/06/04 23:09:03;;;;;;;5.10;2.70;;;23.60;32.60;;;;;;10431533;28;20618;-79
2021/06/04 23:14:08;;;;;;;3.00;2.83;;;23.50;32.80;;;;;;10432968;28;20224;-79
2021/06/04 23:19:11;;;;;;;6.20;3.17;;;23.30;33.10;;;;;;10420943;28;20998;-79
2021/06/04 23:24:13;;;;;;;4.87;3.40;;;23.20;32.90;;;;;;10425054;28;20252;-79
2021/06/04 23:29:18;;;;;;;3.07;2.77;;;23.00;32.90;;;;;;10430191;28;20229;-79
2021/06/04 23:34:20;;;;;;;3.00;2.70;;;22.80;33.50;;;;;;10421438;28;20235;-79
2021/06/04 23:39:23;;;;;;;3.00;2.80;;;22.60;33.30;;;;;;10429305;28;20228;-79
2021/06/04 23:44:27;;;;;;;3.13;2.93;;;22.50;33.70;;;;;;10429221;28;20224;-79
2021/06/04 23:49:30;;;;;;;3.80;3.50;;;22.40;34.20;;;;;;10423058;28;20232;-79
2021/06/04 23:54:33;;;;;;;4.07;3.20;;;22.30;34.00;;;;;;10434121;28;20237;-79
2021/06/04 23:59:37;;;;;;;3.63;3.33;;;22.20;34.20;;;;;;10425793;28;20235;-79
